sensor_id;sensor_type;location;lat;lon;timestamp;P1;durP1;ratioP1;P2;durP2;ratioP2
37633;SDS011;32048;49.902;22.508;2023-08-08T00:01:37;5.40;;;3.70;;
37633;SDS011;32048;49.902;22.508;2023-08-08T00:04:04;3.90;;;3.42;;
37633;SDS011;32048;49.902;22.508;2023-08-08T00:06:31;5.10;;;3.50;;
37633;SDS011;32048;49.902;22.508;2023-08-08T00:08:58;5.00;;;3.38;;
37633;SDS011;32048;49.902;22.508;2023-08-08T00:11:25;6.47;;;3.28;;
37633;SDS011;32048;49.902;22.508;2023-08-08T00:13:52;3.70;;;3.35;;
37633;SDS011;32048;49.902;22.508;2023-08-08T00:16:20;6.72;;;3.83;;
37633;SDS011;32048;49.902;22.508;2023-08-08T00:18:47;7.20;;;3.25;;
37633;SDS011;32048;49.902;22.508;2023-08-08T00:21:16;3.55;;;3.22;;
37633;SDS011;32048;49.902;22.508;2023-08-08T00:23:43;4.63;;;2.97;;
37633;SDS011;32048;49.902;22.508;2023-08-08T00:26:10;5.15;;;3.15;;
37633;SDS011;32048;49.902;22.508;2023-08-08T00:28:37;5.55;;;3.30;;
37633;SDS011;32048;49.902;22.508;2023-08-08T00:31:04;4.78;;;3.00;;
37633;SDS011;32048;49.902;22.508;2023-08-08T00:33:31;8.05;;;3.67;;
37633;SDS011;32048;49.902;22.508;2023-08-08T00:35:59;6.35;;;3.92;;
37633;SDS011;32048;49.902;22.508;2023-08-08T00:38:26;8.48;;;3.17;;
37633;SDS011;32048;49.902;22.508;2023-08-08T00:40:53;7.78;;;3.60;;
37633;SDS011;32048;49.902;22.508;2023-08-08T00:43:20;5.07;;;3.60;;
37633;SDS011;32048;49.902;22.508;2023-08-08T00:45:47;4.80;;;3.35;;
37633;SDS011;32048;49.902;22.508;2023-08-08T00:48:14;8.00;;;3.42;;
37633;SDS011;32048;49.902;22.508;2023-08-08T00:50:42;4.57;;;3.03;;
37633;SDS011;32048;49.902;22.508;2023-08-08T00:53:11;4.88;;;3.33;;
37633;SDS011;32048;49.902;22.508;2023-08-08T00:55:39;5.07;;;2.90;;
37633;SDS011;32048;49.902;22.508;2023-08-08T00:58:06;4.22;;;2.90;;
37633;SDS011;32048;49.902;22.508;2023-08-08T01:00:33;4.15;;;2.80;;
37633;SDS011;32048;49.902;22.508;2023-08-08T01:03:00;4.55;;;3.03;;
37633;SDS011;32048;49.902;22.508;2023-08-08T01:05:29;3.63;;;3.13;;
37633;SDS011;32048;49.902;22.508;2023-08-08T01:08:05;6.05;;;3.17;;
37633;SDS011;32048;49.902;22.508;2023-08-08T01:10:35;4.47;;;3.30;;
37633;SDS011;32048;49.902;22.508;2023-08-08T01:13:12;6.60;;;3.35;;
37633;SDS011;32048;49.902;22.508;2023-08-08T01:18:15;4.43;;;2.80;;
37633;SDS011;32048;49.902;22.508;2023-08-08T01:20:43;3.65;;;2.95;;
37633;SDS011;32048;49.902;22.508;2023-08-08T01:25:56;4.43;;;3.00;;
37633;SDS011;32048;49.902;22.508;2023-08-08T01:28:24;4.72;;;2.85;;
37633;SDS011;32048;49.902;22.508;2023-08-08T01:30:53;3.55;;;2.75;;
37633;SDS011;32048;49.902;22.508;2023-08-08T01:33:20;3.42;;;2.85;;
37633;SDS011;32048;49.902;22.508;2023-08-08T01:35:58;7.80;;;3.20;;
37633;SDS011;32048;49.902;22.508;2023-08-08T01:38:32;6.65;;;3.00;;
37633;SDS011;32048;49.902;22.508;2023-08-08T01:41:03;6.45;;;3.47;;
37633;SDS011;32048;49.902;22.508;2023-08-08T01:43:31;5.57;;;3.08;;
37633;SDS011;32048;49.902;22.508;2023-08-08T01:46:00;5.27;;;3.07;;
37633;SDS011;32048;49.902;22.508;2023-08-08T01:48:29;3.70;;;2.95;;
37633;SDS011;32048;49.902;22.508;2023-08-08T01:50:57;4.95;;;2.97;;
37633;SDS011;32048;49.902;22.508;2023-08-08T01:53:24;4.80;;;3.05;;
37633;SDS011;32048;49.902;22.508;2023-08-08T01:55:51;6.07;;;2.75;;
37633;SDS011;32048;49.902;22.508;2023-08-08T01:58:19;3.65;;;2.80;;
37633;SDS011;32048;49.902;22.508;2023-08-08T02:00:46;6.65;;;3.05;;
37633;SDS011;32048;49.902;22.508;2023-08-08T02:03:14;6.07;;;2.95;;
37633;SDS011;32048;49.902;22.508;2023-08-08T02:05:41;4.75;;;3.22;;
37633;SDS011;32048;49.902;22.508;2023-08-08T02:08:08;4.03;;;2.90;;
37633;SDS011;32048;49.902;22.508;2023-08-08T02:10:36;4.00;;;2.70;;
37633;SDS011;32048;49.902;22.508;2023-08-08T02:13:03;4.95;;;2.95;;
37633;SDS011;32048;49.902;22.508;2023-08-08T02:15:30;4.47;;;2.75;;
37633;SDS011;32048;49.902;22.508;2023-08-08T02:17:59;4.55;;;3.05;;
37633;SDS011;32048;49.902;22.508;2023-08-08T02:20:26;3.85;;;2.40;;
37633;SDS011;32048;49.902;22.508;2023-08-08T02:22:54;3.70;;;2.30;;
37633;SDS011;32048;49.902;22.508;2023-08-08T02:25:21;4.93;;;2.28;;
37633;SDS011;32048;49.902;22.508;2023-08-08T02:27:48;4.22;;;2.45;;
37633;SDS011;32048;49.902;22.508;2023-08-08T02:30:15;3.28;;;2.60;;
37633;SDS011;32048;49.902;22.508;2023-08-08T02:32:42;3.03;;;2.40;;
37633;SDS011;32048;49.902;22.508;2023-08-08T02:35:10;2.88;;;2.40;;
37633;SDS011;32048;49.902;22.508;2023-08-08T02:37:37;2.67;;;2.38;;
37633;SDS011;32048;49.902;22.508;2023-08-08T02:40:05;2.85;;;2.30;;
37633;SDS011;32048;49.902;22.508;2023-08-08T02:42:33;2.60;;;2.25;;
37633;SDS011;32048;49.902;22.508;2023-08-08T02:45:00;2.38;;;2.17;;
37633;SDS011;32048;49.902;22.508;2023-08-08T02:47:27;2.45;;;2.22;;
37633;SDS011;32048;49.902;22.508;2023-08-08T02:49:55;3.08;;;2.22;;
37633;SDS011;32048;49.902;22.508;2023-08-08T02:52:22;2.50;;;2.30;;
37633;SDS011;32048;49.902;22.508;2023-08-08T02:54:49;3.35;;;2.10;;
37633;SDS011;32048;49.902;22.508;2023-08-08T02:57:16;5.63;;;2.10;;
37633;SDS011;32048;49.902;22.508;2023-08-08T02:59:43;2.20;;;2.00;;
37633;SDS011;32048;49.902;22.508;2023-08-08T03:02:10;3.45;;;1.90;;
37633;SDS011;32048;49.902;22.508;2023-08-08T03:04:37;2.78;;;1.85;;
37633;SDS011;32048;49.902;22.508;2023-08-08T03:07:05;2.90;;;2.15;;
37633;SDS011;32048;49.902;22.508;2023-08-08T03:09:32;3.35;;;1.70;;
37633;SDS011;32048;49.902;22.508;2023-08-08T03:12:00;5.82;;;1.80;;
37633;SDS011;32048;49.902;22.508;2023-08-08T03:14:27;2.45;;;2.22;;
37633;SDS011;32048;49.902;22.508;2023-08-08T03:16:54;3.35;;;2.33;;
37633;SDS011;32048;49.902;22.508;2023-08-08T03:19:21;3.50;;;2.00;;
37633;SDS011;32048;49.902;22.508;2023-08-08T03:21:48;5.32;;;2.30;;
37633;SDS011;32048;49.902;22.508;2023-08-08T03:24:16;3.13;;;1.83;;
37633;SDS011;32048;49.902;22.508;2023-08-08T03:26:43;2.35;;;1.90;;
37633;SDS011;32048;49.902;22.508;2023-08-08T03:29:10;2.88;;;1.88;;
37633;SDS011;32048;49.902;22.508;2023-08-08T03:31:39;3.47;;;1.98;;
37633;SDS011;32048;49.902;22.508;2023-08-08T03:34:06;3.38;;;1.85;;
37633;SDS011;32048;49.902;22.508;2023-08-08T03:36:33;2.42;;;1.95;;
37633;SDS011;32048;49.902;22.508;2023-08-08T03:39:01;2.40;;;2.00;;
37633;SDS011;32048;49.902;22.508;2023-08-08T03:41:28;5.07;;;2.30;;
37633;SDS011;32048;49.902;22.508;2023-08-08T03:43:55;2.75;;;1.77;;
37633;SDS011;32048;49.902;22.508;2023-08-08T03:46:23;5.97;;;1.90;;
37633;SDS011;32048;49.902;22.508;2023-08-08T03:48:50;2.70;;;1.75;;
37633;SDS011;32048;49.902;22.508;2023-08-08T03:51:20;2.92;;;1.48;;
37633;SDS011;32048;49.902;22.508;2023-08-08T03:53:47;2.55;;;1.85;;
37633;SDS011;32048;49.902;22.508;2023-08-08T03:56:14;2.70;;;1.58;;
37633;SDS011;32048;49.902;22.508;2023-08-08T03:58:41;2.15;;;1.83;;
37633;SDS011;32048;49.902;22.508;2023-08-08T04:01:08;6.57;;;1.60;;
37633;SDS011;32048;49.902;22.508;2023-08-08T04:03:35;2.83;;;1.65;;
37633;SDS011;32048;49.902;22.508;2023-08-08T04:06:03;2.20;;;1.40;;
37633;SDS011;32048;49.902;22.508;2023-08-08T04:08:31;3.60;;;1.70;;
37633;SDS011;32048;49.902;22.508;2023-08-08T04:10:58;2.70;;;1.58;;
37633;SDS011;32048;49.902;22.508;2023-08-08T04:13:25;3.33;;;1.77;;
37633;SDS011;32048;49.902;22.508;2023-08-08T04:15:52;2.60;;;1.77;;
37633;SDS011;32048;49.902;22.508;2023-08-08T04:18:20;7.25;;;2.58;;
37633;SDS011;32048;49.902;22.508;2023-08-08T04:20:47;2.40;;;1.73;;
37633;SDS011;32048;49.902;22.508;2023-08-08T04:23:14;3.92;;;1.67;;
37633;SDS011;32048;49.902;22.508;2023-08-08T04:25:41;2.35;;;1.63;;
37633;SDS011;32048;49.902;22.508;2023-08-08T04:28:08;5.53;;;1.73;;
37633;SDS011;32048;49.902;22.508;2023-08-08T04:30:36;5.60;;;1.52;;
37633;SDS011;32048;49.902;22.508;2023-08-08T04:33:04;3.85;;;1.50;;
37633;SDS011;32048;49.902;22.508;2023-08-08T04:35:31;1.92;;;1.30;;
37633;SDS011;32048;49.902;22.508;2023-08-08T04:37:58;4.43;;;1.52;;
37633;SDS011;32048;49.902;22.508;2023-08-08T04:40:25;2.47;;;1.40;;
37633;SDS011;32048;49.902;22.508;2023-08-08T04:42:53;4.00;;;1.70;;
37633;SDS011;32048;49.902;22.508;2023-08-08T04:45:19;4.80;;;1.70;;
37633;SDS011;32048;49.902;22.508;2023-08-08T04:47:48;4.72;;;1.63;;
37633;SDS011;32048;49.902;22.508;2023-08-08T04:50:15;7.68;;;2.05;;
37633;SDS011;32048;49.902;22.508;2023-08-08T04:52:42;4.60;;;2.00;;
37633;SDS011;32048;49.902;22.508;2023-08-08T04:55:09;4.15;;;1.75;;
37633;SDS011;32048;49.902;22.508;2023-08-08T04:57:37;3.65;;;1.55;;
37633;SDS011;32048;49.902;22.508;2023-08-08T05:00:04;2.55;;;1.63;;
37633;SDS011;32048;49.902;22.508;2023-08-08T05:02:35;4.20;;;1.73;;
37633;SDS011;32048;49.902;22.508;2023-08-08T05:05:03;2.10;;;1.30;;
37633;SDS011;32048;49.902;22.508;2023-08-08T05:07:30;3.13;;;1.70;;
37633;SDS011;32048;49.902;22.508;2023-08-08T05:09:57;5.25;;;1.52;;
37633;SDS011;32048;49.902;22.508;2023-08-08T05:12:25;5.45;;;1.52;;
37633;SDS011;32048;49.902;22.508;2023-08-08T05:14:54;2.72;;;1.23;;
37633;SDS011;32048;49.902;22.508;2023-08-08T05:17:21;5.57;;;1.90;;
37633;SDS011;32048;49.902;22.508;2023-08-08T05:19:48;3.80;;;1.88;;
37633;SDS011;32048;49.902;22.508;2023-08-08T05:22:15;4.05;;;1.70;;
37633;SDS011;32048;49.902;22.508;2023-08-08T05:24:42;4.35;;;1.50;;
37633;SDS011;32048;49.902;22.508;2023-08-08T05:27:10;3.30;;;1.60;;
37633;SDS011;32048;49.902;22.508;2023-08-08T05:29:38;4.20;;;1.60;;
37633;SDS011;32048;49.902;22.508;2023-08-08T05:32:06;5.45;;;1.50;;
37633;SDS011;32048;49.902;22.508;2023-08-08T05:34:34;3.13;;;1.35;;
37633;SDS011;32048;49.902;22.508;2023-08-08T05:37:01;2.28;;;1.48;;
37633;SDS011;32048;49.902;22.508;2023-08-08T05:39:42;3.25;;;1.50;;
37633;SDS011;32048;49.902;22.508;2023-08-08T05:42:09;4.03;;;1.95;;
37633;SDS011;32048;49.902;22.508;2023-08-08T05:44:36;4.78;;;1.63;;
37633;SDS011;32048;49.902;22.508;2023-08-08T05:47:03;3.63;;;1.65;;
37633;SDS011;32048;49.902;22.508;2023-08-08T05:49:31;6.03;;;1.70;;
37633;SDS011;32048;49.902;22.508;2023-08-08T05:51:58;3.03;;;1.50;;
37633;SDS011;32048;49.902;22.508;2023-08-08T05:54:26;3.47;;;1.38;;
37633;SDS011;32048;49.902;22.508;2023-08-08T05:56:53;5.65;;;1.45;;
37633;SDS011;32048;49.902;22.508;2023-08-08T05:59:20;6.70;;;1.80;;
37633;SDS011;32048;49.902;22.508;2023-08-08T06:01:48;2.90;;;1.60;;
37633;SDS011;32048;49.902;22.508;2023-08-08T06:04:15;4.55;;;1.80;;
37633;SDS011;32048;49.902;22.508;2023-08-08T06:06:42;4.60;;;1.70;;
37633;SDS011;32048;49.902;22.508;2023-08-08T06:09:10;4.45;;;1.63;;
37633;SDS011;32048;49.902;22.508;2023-08-08T06:11:37;4.07;;;1.85;;
37633;SDS011;32048;49.902;22.508;2023-08-08T06:14:04;2.85;;;1.35;;
37633;SDS011;32048;49.902;22.508;2023-08-08T06:16:32;3.70;;;1.67;;
37633;SDS011;32048;49.902;22.508;2023-08-08T06:18:59;3.33;;;1.63;;
37633;SDS011;32048;49.902;22.508;2023-08-08T06:21:27;3.60;;;1.50;;
37633;SDS011;32048;49.902;22.508;2023-08-08T06:23:54;5.43;;;1.73;;
37633;SDS011;32048;49.902;22.508;2023-08-08T06:26:22;6.25;;;1.63;;
37633;SDS011;32048;49.902;22.508;2023-08-08T06:28:49;4.38;;;1.38;;
37633;SDS011;32048;49.902;22.508;2023-08-08T06:33:47;3.72;;;1.65;;
37633;SDS011;32048;49.902;22.508;2023-08-08T06:36:15;4.63;;;1.50;;
37633;SDS011;32048;49.902;22.508;2023-08-08T06:38:42;3.83;;;1.83;;
37633;SDS011;32048;49.902;22.508;2023-08-08T06:41:10;3.33;;;1.35;;
37633;SDS011;32048;49.902;22.508;2023-08-08T06:43:36;3.17;;;1.30;;
37633;SDS011;32048;49.902;22.508;2023-08-08T06:46:04;2.50;;;1.52;;
37633;SDS011;32048;49.902;22.508;2023-08-08T06:48:31;2.72;;;1.52;;
37633;SDS011;32048;49.902;22.508;2023-08-08T06:50:58;4.57;;;1.50;;
37633;SDS011;32048;49.902;22.508;2023-08-08T06:53:25;5.63;;;2.38;;
37633;SDS011;32048;49.902;22.508;2023-08-08T06:55:53;2.65;;;1.30;;
37633;SDS011;32048;49.902;22.508;2023-08-08T06:58:20;4.25;;;1.95;;
37633;SDS011;32048;49.902;22.508;2023-08-08T07:00:47;4.07;;;1.70;;
37633;SDS011;32048;49.902;22.508;2023-08-08T07:03:15;7.00;;;1.80;;
37633;SDS011;32048;49.902;22.508;2023-08-08T07:05:42;6.20;;;1.65;;
37633;SDS011;32048;49.902;22.508;2023-08-08T07:08:10;3.75;;;1.65;;
37633;SDS011;32048;49.902;22.508;2023-08-08T07:10:39;6.13;;;1.63;;
37633;SDS011;32048;49.902;22.508;2023-08-08T07:13:12;3.40;;;1.60;;
37633;SDS011;32048;49.902;22.508;2023-08-08T07:15:42;7.25;;;1.65;;
37633;SDS011;32048;49.902;22.508;2023-08-08T07:18:12;4.40;;;1.70;;
37633;SDS011;32048;49.902;22.508;2023-08-08T07:20:39;4.00;;;1.70;;
37633;SDS011;32048;49.902;22.508;2023-08-08T07:23:06;5.00;;;1.70;;
37633;SDS011;32048;49.902;22.508;2023-08-08T07:25:34;5.88;;;1.60;;
37633;SDS011;32048;49.902;22.508;2023-08-08T07:28:01;3.35;;;1.30;;
37633;SDS011;32048;49.902;22.508;2023-08-08T07:30:29;3.00;;;1.30;;
37633;SDS011;32048;49.902;22.508;2023-08-08T07:32:56;3.30;;;1.30;;
37633;SDS011;32048;49.902;22.508;2023-08-08T07:35:41;3.45;;;1.30;;
37633;SDS011;32048;49.902;22.508;2023-08-08T07:38:08;3.17;;;1.67;;
37633;SDS011;32048;49.902;22.508;2023-08-08T07:40:35;5.10;;;1.60;;
37633;SDS011;32048;49.902;22.508;2023-08-08T07:43:02;4.43;;;1.65;;
37633;SDS011;32048;49.902;22.508;2023-08-08T07:45:33;8.73;;;2.22;;
37633;SDS011;32048;49.902;22.508;2023-08-08T07:48:26;4.18;;;1.60;;
37633;SDS011;32048;49.902;22.508;2023-08-08T07:50:53;3.03;;;1.80;;
37633;SDS011;32048;49.902;22.508;2023-08-08T07:53:20;3.60;;;1.58;;
37633;SDS011;32048;49.902;22.508;2023-08-08T07:55:48;4.55;;;1.60;;
37633;SDS011;32048;49.902;22.508;2023-08-08T07:58:15;4.68;;;1.75;;
37633;SDS011;32048;49.902;22.508;2023-08-08T08:00:42;2.97;;;1.52;;
37633;SDS011;32048;49.902;22.508;2023-08-08T08:03:09;5.35;;;1.80;;
37633;SDS011;32048;49.902;22.508;2023-08-08T08:05:36;3.70;;;1.58;;
37633;SDS011;32048;49.902;22.508;2023-08-08T08:08:04;3.80;;;1.70;;
37633;SDS011;32048;49.902;22.508;2023-08-08T08:10:37;3.10;;;1.95;;
37633;SDS011;32048;49.902;22.508;2023-08-08T08:13:04;2.80;;;1.40;;
37633;SDS011;32048;49.902;22.508;2023-08-08T08:15:32;10.48;;;5.97;;
37633;SDS011;32048;49.902;22.508;2023-08-08T08:17:59;12.68;;;1.77;;
37633;SDS011;32048;49.902;22.508;2023-08-08T08:20:26;3.72;;;1.70;;
37633;SDS011;32048;49.902;22.508;2023-08-08T08:22:53;21.70;;;4.07;;
37633;SDS011;32048;49.902;22.508;2023-08-08T08:25:20;2.85;;;1.58;;
37633;SDS011;32048;49.902;22.508;2023-08-08T08:27:47;6.10;;;1.70;;
37633;SDS011;32048;49.902;22.508;2023-08-08T08:30:15;2.45;;;1.63;;
37633;SDS011;32048;49.902;22.508;2023-08-08T08:32:44;3.42;;;1.50;;
37633;SDS011;32048;49.902;22.508;2023-08-08T08:35:11;2.38;;;1.67;;
37633;SDS011;32048;49.902;22.508;2023-08-08T08:37:39;3.88;;;1.63;;
37633;SDS011;32048;49.902;22.508;2023-08-08T08:40:07;5.00;;;1.58;;
37633;SDS011;32048;49.902;22.508;2023-08-08T08:42:35;2.50;;;1.55;;
37633;SDS011;32048;49.902;22.508;2023-08-08T08:45:03;3.45;;;1.58;;
37633;SDS011;32048;49.902;22.508;2023-08-08T08:47:32;2.95;;;1.70;;
37633;SDS011;32048;49.902;22.508;2023-08-08T08:50:02;4.38;;;1.85;;
37633;SDS011;32048;49.902;22.508;2023-08-08T08:52:30;2.72;;;1.70;;
37633;SDS011;32048;49.902;22.508;2023-08-08T08:54:58;5.53;;;2.50;;
37633;SDS011;32048;49.902;22.508;2023-08-08T08:57:25;3.60;;;1.55;;
37633;SDS011;32048;49.902;22.508;2023-08-08T08:59:52;3.28;;;1.42;;
37633;SDS011;32048;49.902;22.508;2023-08-08T09:02:19;4.45;;;2.03;;
37633;SDS011;32048;49.902;22.508;2023-08-08T09:04:47;4.80;;;2.27;;
37633;SDS011;32048;49.902;22.508;2023-08-08T09:07:15;2.22;;;1.30;;
37633;SDS011;32048;49.902;22.508;2023-08-08T09:09:46;3.10;;;1.67;;
37633;SDS011;32048;49.902;22.508;2023-08-08T09:12:12;3.17;;;1.70;;
37633;SDS011;32048;49.902;22.508;2023-08-08T09:14:41;3.30;;;1.30;;
37633;SDS011;32048;49.902;22.508;2023-08-08T09:17:11;2.00;;;1.45;;
37633;SDS011;32048;49.902;22.508;2023-08-08T09:19:43;3.33;;;1.60;;
37633;SDS011;32048;49.902;22.508;2023-08-08T09:22:11;1.98;;;1.45;;
37633;SDS011;32048;49.902;22.508;2023-08-08T09:24:40;3.90;;;1.60;;
37633;SDS011;32048;49.902;22.508;2023-08-08T09:27:08;2.53;;;1.25;;
37633;SDS011;32048;49.902;22.508;2023-08-08T09:29:36;4.18;;;1.85;;
37633;SDS011;32048;49.902;22.508;2023-08-08T09:32:04;11.23;;;2.85;;
37633;SDS011;32048;49.902;22.508;2023-08-08T09:34:32;4.70;;;2.00;;
37633;SDS011;32048;49.902;22.508;2023-08-08T09:37:00;2.80;;;1.40;;
37633;SDS011;32048;49.902;22.508;2023-08-08T09:39:28;3.55;;;1.80;;
37633;SDS011;32048;49.902;22.508;2023-08-08T09:41:56;6.68;;;2.50;;
37633;SDS011;32048;49.902;22.508;2023-08-08T09:44:24;5.18;;;2.67;;
37633;SDS011;32048;49.902;22.508;2023-08-08T09:46:53;2.55;;;1.80;;
37633;SDS011;32048;49.902;22.508;2023-08-08T09:49:21;5.10;;;1.70;;
37633;SDS011;32048;49.902;22.508;2023-08-08T09:51:49;2.80;;;1.33;;
37633;SDS011;32048;49.902;22.508;2023-08-08T09:56:44;4.97;;;1.70;;
37633;SDS011;32048;49.902;22.508;2023-08-08T09:59:12;4.88;;;1.70;;
37633;SDS011;32048;49.902;22.508;2023-08-08T10:01:40;4.35;;;1.90;;
37633;SDS011;32048;49.902;22.508;2023-08-08T10:06:36;4.00;;;1.80;;
37633;SDS011;32048;49.902;22.508;2023-08-08T10:09:04;5.13;;;1.92;;
37633;SDS011;32048;49.902;22.508;2023-08-08T10:11:31;2.92;;;1.70;;
37633;SDS011;32048;49.902;22.508;2023-08-08T10:14:01;5.20;;;1.60;;
37633;SDS011;32048;49.902;22.508;2023-08-08T10:16:31;4.22;;;1.65;;
37633;SDS011;32048;49.902;22.508;2023-08-08T10:19:01;6.07;;;1.95;;
37633;SDS011;32048;49.902;22.508;2023-08-08T10:21:36;6.93;;;1.42;;
37633;SDS011;32048;49.902;22.508;2023-08-08T10:24:08;2.83;;;1.88;;
37633;SDS011;32048;49.902;22.508;2023-08-08T10:26:52;3.50;;;1.52;;
37633;SDS011;32048;49.902;22.508;2023-08-08T10:29:20;2.63;;;1.90;;
37633;SDS011;32048;49.902;22.508;2023-08-08T10:32:03;2.58;;;1.77;;
37633;SDS011;32048;49.902;22.508;2023-08-08T10:34:41;4.85;;;1.85;;
37633;SDS011;32048;49.902;22.508;2023-08-08T10:37:10;3.63;;;1.50;;
37633;SDS011;32048;49.902;22.508;2023-08-08T10:42:20;5.30;;;1.80;;
37633;SDS011;32048;49.902;22.508;2023-08-08T10:44:51;2.40;;;1.60;;
37633;SDS011;32048;49.902;22.508;2023-08-08T10:47:23;3.35;;;1.83;;
37633;SDS011;32048;49.902;22.508;2023-08-08T10:52:33;3.65;;;1.40;;
37633;SDS011;32048;49.902;22.508;2023-08-08T10:55:26;4.22;;;2.13;;
37633;SDS011;32048;49.902;22.508;2023-08-08T11:00:32;4.07;;;1.35;;
37633;SDS011;32048;49.902;22.508;2023-08-08T11:03:01;3.15;;;1.70;;
37633;SDS011;32048;49.902;22.508;2023-08-08T11:05:32;2.20;;;1.40;;
37633;SDS011;32048;49.902;22.508;2023-08-08T11:08:01;4.80;;;1.35;;
37633;SDS011;32048;49.902;22.508;2023-08-08T11:10:37;2.42;;;1.40;;
37633;SDS011;32048;49.902;22.508;2023-08-08T11:13:06;3.20;;;1.42;;
37633;SDS011;32048;49.902;22.508;2023-08-08T11:18:03;3.22;;;1.63;;
37633;SDS011;32048;49.902;22.508;2023-08-08T11:20:33;2.33;;;1.60;;
37633;SDS011;32048;49.902;22.508;2023-08-08T11:23:01;2.30;;;1.67;;
37633;SDS011;32048;49.902;22.508;2023-08-08T11:25:31;8.27;;;2.05;;
37633;SDS011;32048;49.902;22.508;2023-08-08T11:27:59;4.97;;;1.70;;
37633;SDS011;32048;49.902;22.508;2023-08-08T11:30:30;2.42;;;1.40;;
37633;SDS011;32048;49.902;22.508;2023-08-08T11:33:00;2.28;;;1.48;;
37633;SDS011;32048;49.902;22.508;2023-08-08T11:35:31;3.03;;;1.38;;
37633;SDS011;32048;49.902;22.508;2023-08-08T11:38:00;4.78;;;1.70;;
37633;SDS011;32048;49.902;22.508;2023-08-08T11:40:29;2.97;;;1.63;;
37633;SDS011;32048;49.902;22.508;2023-08-08T11:42:57;3.78;;;1.70;;
37633;SDS011;32048;49.902;22.508;2023-08-08T11:45:25;3.90;;;2.15;;
37633;SDS011;32048;49.902;22.508;2023-08-08T11:47:53;2.30;;;1.73;;
37633;SDS011;32048;49.902;22.508;2023-08-08T11:50:25;3.47;;;1.70;;
37633;SDS011;32048;49.902;22.508;2023-08-08T11:52:54;2.63;;;1.83;;
37633;SDS011;32048;49.902;22.508;2023-08-08T11:55:28;4.63;;;1.33;;
37633;SDS011;32048;49.902;22.508;2023-08-08T11:57:56;4.43;;;2.00;;
37633;SDS011;32048;49.902;22.508;2023-08-08T12:00:27;4.55;;;1.90;;
37633;SDS011;32048;49.902;22.508;2023-08-08T12:02:58;4.10;;;1.40;;
37633;SDS011;32048;49.902;22.508;2023-08-08T12:05:28;1.42;;;1.27;;
37633;SDS011;32048;49.902;22.508;2023-08-08T12:07:58;3.22;;;1.67;;
37633;SDS011;32048;49.902;22.508;2023-08-08T12:10:25;1.52;;;1.38;;
37633;SDS011;32048;49.902;22.508;2023-08-08T12:12:53;4.30;;;1.70;;
37633;SDS011;32048;49.902;22.508;2023-08-08T12:15:27;2.83;;;1.50;;
37633;SDS011;32048;49.902;22.508;2023-08-08T12:18:04;2.33;;;1.45;;
37633;SDS011;32048;49.902;22.508;2023-08-08T12:20:31;9.13;;;5.15;;
37633;SDS011;32048;49.902;22.508;2023-08-08T12:22:59;4.57;;;2.20;;
37633;SDS011;32048;49.902;22.508;2023-08-08T12:25:26;6.72;;;3.35;;
37633;SDS011;32048;49.902;22.508;2023-08-08T12:27:54;9.35;;;4.90;;
37633;SDS011;32048;49.902;22.508;2023-08-08T12:30:21;4.55;;;1.40;;
37633;SDS011;32048;49.902;22.508;2023-08-08T12:32:48;4.47;;;2.03;;
37633;SDS011;32048;49.902;22.508;2023-08-08T12:35:15;1.92;;;1.40;;
37633;SDS011;32048;49.902;22.508;2023-08-08T12:37:43;3.22;;;1.20;;
37633;SDS011;32048;49.902;22.508;2023-08-08T12:40:11;1.92;;;1.58;;
37633;SDS011;32048;49.902;22.508;2023-08-08T12:42:38;3.65;;;1.48;;
37633;SDS011;32048;49.902;22.508;2023-08-08T12:45:06;5.18;;;1.90;;
37633;SDS011;32048;49.902;22.508;2023-08-08T12:47:34;5.45;;;1.80;;
37633;SDS011;32048;49.902;22.508;2023-08-08T12:50:04;4.05;;;1.95;;
37633;SDS011;32048;49.902;22.508;2023-08-08T12:52:32;5.15;;;1.85;;
37633;SDS011;32048;49.902;22.508;2023-08-08T12:54:59;3.25;;;1.98;;
37633;SDS011;32048;49.902;22.508;2023-08-08T12:57:27;2.58;;;1.58;;
37633;SDS011;32048;49.902;22.508;2023-08-08T12:59:54;3.95;;;1.88;;
37633;SDS011;32048;49.902;22.508;2023-08-08T13:02:21;6.53;;;1.98;;
37633;SDS011;32048;49.902;22.508;2023-08-08T13:04:49;8.57;;;2.45;;
37633;SDS011;32048;49.902;22.508;2023-08-08T13:07:16;14.10;;;2.50;;
37633;SDS011;32048;49.902;22.508;2023-08-08T13:09:43;6.72;;;1.70;;
37633;SDS011;32048;49.902;22.508;2023-08-08T13:12:10;2.53;;;1.67;;
37633;SDS011;32048;49.902;22.508;2023-08-08T13:14:37;2.38;;;1.35;;
37633;SDS011;32048;49.902;22.508;2023-08-08T13:17:04;1.77;;;1.40;;
37633;SDS011;32048;49.902;22.508;2023-08-08T13:19:31;4.45;;;1.55;;
37633;SDS011;32048;49.902;22.508;2023-08-08T13:21:58;4.28;;;1.90;;
37633;SDS011;32048;49.902;22.508;2023-08-08T13:24:27;5.40;;;1.80;;
37633;SDS011;32048;49.902;22.508;2023-08-08T13:26:54;8.48;;;2.08;;
37633;SDS011;32048;49.902;22.508;2023-08-08T13:29:21;1.80;;;1.40;;
37633;SDS011;32048;49.902;22.508;2023-08-08T13:31:48;5.70;;;1.70;;
37633;SDS011;32048;49.902;22.508;2023-08-08T13:34:15;2.55;;;1.80;;
37633;SDS011;32048;49.902;22.508;2023-08-08T13:36:42;1.90;;;1.70;;
37633;SDS011;32048;49.902;22.508;2023-08-08T13:39:10;3.17;;;1.63;;
37633;SDS011;32048;49.902;22.508;2023-08-08T13:41:37;3.55;;;2.25;;
37633;SDS011;32048;49.902;22.508;2023-08-08T13:44:04;4.78;;;1.85;;
37633;SDS011;32048;49.902;22.508;2023-08-08T13:46:31;7.50;;;2.80;;
37633;SDS011;32048;49.902;22.508;2023-08-08T13:48:59;4.28;;;2.58;;
37633;SDS011;32048;49.902;22.508;2023-08-08T13:51:26;2.63;;;1.88;;
37633;SDS011;32048;49.902;22.508;2023-08-08T13:53:54;2.45;;;1.60;;
37633;SDS011;32048;49.902;22.508;2023-08-08T13:56:21;4.63;;;1.75;;
37633;SDS011;32048;49.902;22.508;2023-08-08T13:58:49;3.15;;;1.90;;
37633;SDS011;32048;49.902;22.508;2023-08-08T14:01:16;3.85;;;1.60;;
37633;SDS011;32048;49.902;22.508;2023-08-08T14:03:43;2.63;;;1.85;;
37633;SDS011;32048;49.902;22.508;2023-08-08T14:06:11;3.58;;;1.40;;
37633;SDS011;32048;49.902;22.508;2023-08-08T14:08:38;3.67;;;1.70;;
37633;SDS011;32048;49.902;22.508;2023-08-08T14:11:05;3.88;;;1.55;;
37633;SDS011;32048;49.902;22.508;2023-08-08T14:13:32;2.13;;;1.70;;
37633;SDS011;32048;49.902;22.508;2023-08-08T14:16:01;4.50;;;1.87;;
37633;SDS011;32048;49.902;22.508;2023-08-08T14:18:28;2.65;;;1.50;;
37633;SDS011;32048;49.902;22.508;2023-08-08T14:20:55;3.40;;;2.03;;
37633;SDS011;32048;49.902;22.508;2023-08-08T14:23:23;2.50;;;1.50;;
37633;SDS011;32048;49.902;22.508;2023-08-08T14:25:50;2.75;;;1.52;;
37633;SDS011;32048;49.902;22.508;2023-08-08T14:28:17;3.90;;;1.80;;
37633;SDS011;32048;49.902;22.508;2023-08-08T14:30:44;2.45;;;1.80;;
37633;SDS011;32048;49.902;22.508;2023-08-08T14:33:13;2.70;;;1.65;;
37633;SDS011;32048;49.902;22.508;2023-08-08T14:35:41;6.40;;;1.73;;
37633;SDS011;32048;49.902;22.508;2023-08-08T14:38:09;6.43;;;2.23;;
37633;SDS011;32048;49.902;22.508;2023-08-08T14:40:36;2.47;;;1.90;;
37633;SDS011;32048;49.902;22.508;2023-08-08T14:43:04;2.22;;;1.90;;
37633;SDS011;32048;49.902;22.508;2023-08-08T14:45:37;3.53;;;1.67;;
37633;SDS011;32048;49.902;22.508;2023-08-08T14:48:05;2.60;;;1.65;;
37633;SDS011;32048;49.902;22.508;2023-08-08T14:50:33;2.58;;;1.75;;
37633;SDS011;32048;49.902;22.508;2023-08-08T14:53:01;5.82;;;1.60;;
37633;SDS011;32048;49.902;22.508;2023-08-08T14:55:28;3.35;;;1.98;;
37633;SDS011;32048;49.902;22.508;2023-08-08T14:57:55;4.00;;;1.60;;
37633;SDS011;32048;49.902;22.508;2023-08-08T15:00:22;5.38;;;2.00;;
37633;SDS011;32048;49.902;22.508;2023-08-08T15:02:50;5.05;;;1.60;;